KLM887 EHAM-VHHH
Flight info
| Callsign | KLM887 |
|---|---|
| Flight time | N/A |
| Altitude | 35000 |
| Route | ARNEM L620 HMM DCT NOMKA DCT OMELO DCT ODLIV DCT OMIFU DCT SAGAN DCT ETNOG DCT ROMAG DCT UDROS UM859 KARDE UL851 TBN UM11 REBLO M11 LUSAL N199 RASAM L88 METKA B476 DARVA/K0904F350 T898 SUDAR/K0895F370 T898 OGOLI N193 SR L163 TISIB L141 KAMUD/K0891S1130 W186 SADAN Y1 NUPNI/K0895S1190 Y1 OMBON W245 OVRAL B330 KWE W181 DUDIT A599 POU R473 SIERA |
| Aircraft | B789/H-SDE1E2E3FGHIJ2J3J4J5M1RWXY/LB1D1 |
Departure
| Time | N/A |
|---|---|
| Airport | Amsterdam Airport Schiphol (EHAM) |
Arrival
| Time | 2026-05-06 09:42 |
|---|---|
| Airport | Hong Kong International Airport (VHHH) |
| Time | Latitude | Longitude | Altitude | Speed | Heading |
|---|---|---|---|---|---|
| 2026-05-06 08:26 | 26.80581 | 106.37963 | 34792 ft | 523 kts | 131° |
| 2026-05-06 08:26 | 26.78367 | 106.41236 | 34823 ft | 530 kts | 131° |
| 2026-05-06 08:26 | 26.73858 | 106.47887 | 34995 ft | 540 kts | 130° |
| 2026-05-06 08:27 | 26.71582 | 106.51241 | 35237 ft | 541 kts | 131° |
| 2026-05-06 08:27 | 26.69307 | 106.54590 | 35486 ft | 541 kts | 131° |
| 2026-05-06 08:27 | 26.67062 | 106.57892 | 35741 ft | 541 kts | 131° |
| 2026-05-06 08:27 | 26.64784 | 106.61242 | 36002 ft | 541 kts | 131° |
| 2026-05-06 08:28 | 26.62506 | 106.64589 | 36260 ft | 540 kts | 131° |
| 2026-05-06 08:28 | 26.60230 | 106.67928 | 36500 ft | 540 kts | 131° |
| 2026-05-06 08:28 | 26.57951 | 106.71271 | 36723 ft | 540 kts | 131° |
| 2026-05-06 08:28 | 26.55677 | 106.74603 | 37006 ft | 539 kts | 131° |
| 2026-05-06 08:29 | 26.53400 | 106.77937 | 37268 ft | 538 kts | 131° |
| 2026-05-06 08:29 | 26.50958 | 106.81072 | 37461 ft | 533 kts | 139° |
| 2026-05-06 08:29 | 26.48311 | 106.83969 | 37686 ft | 532 kts | 140° |
| 2026-05-06 08:29 | 26.45643 | 106.86834 | 37919 ft | 532 kts | 140° |
| 2026-05-06 08:30 | 26.43004 | 106.89728 | 38167 ft | 531 kts | 139° |
| 2026-05-06 08:30 | 26.40392 | 106.92640 | 38412 ft | 531 kts | 139° |
| 2026-05-06 08:30 | 26.37798 | 106.95502 | 38626 ft | 531 kts | 140° |
| 2026-05-06 08:30 | 26.35158 | 106.98374 | 38803 ft | 530 kts | 140° |
| 2026-05-06 08:31 | 26.32523 | 107.01243 | 38947 ft | 530 kts | 140° |
| 2026-05-06 08:31 | 26.29899 | 107.04131 | 39127 ft | 530 kts | 140° |
| 2026-05-06 08:31 | 26.27282 | 107.07014 | 39335 ft | 529 kts | 140° |
| 2026-05-06 08:31 | 26.24664 | 107.09891 | 39517 ft | 528 kts | 140° |
| 2026-05-06 08:32 | 26.22046 | 107.12764 | 39692 ft | 528 kts | 140° |
| 2026-05-06 08:32 | 26.19427 | 107.15638 | 39838 ft | 529 kts | 140° |
| 2026-05-06 08:32 | 26.14171 | 107.21403 | 39884 ft | 531 kts | 139° |
| 2026-05-06 08:33 | 26.08928 | 107.27147 | 39873 ft | 526 kts | 139° |
| 2026-05-06 08:33 | 26.03704 | 107.32859 | 39875 ft | 526 kts | 139° |
| 2026-05-06 08:34 | 25.95861 | 107.41424 | 39876 ft | 527 kts | 139° |
| 2026-05-06 08:35 | 25.90645 | 107.47110 | 39868 ft | 529 kts | 139° |
| 2026-05-06 08:35 | 25.85390 | 107.52833 | 39874 ft | 528 kts | 139° |
| 2026-05-06 08:36 | 25.80138 | 107.58542 | 39871 ft | 529 kts | 139° |
| 2026-05-06 08:36 | 25.74880 | 107.64252 | 39877 ft | 527 kts | 139° |
| 2026-05-06 08:37 | 25.69659 | 107.69919 | 39876 ft | 525 kts | 139° |
| 2026-05-06 08:37 | 25.64473 | 107.75623 | 39875 ft | 525 kts | 138° |
| 2026-05-06 08:38 | 25.60113 | 107.80386 | 39871 ft | 525 kts | 139° |
| 2026-05-06 08:38 | 25.54937 | 107.86038 | 39872 ft | 526 kts | 138° |
| 2026-05-06 08:39 | 25.49699 | 107.91724 | 39851 ft | 526 kts | 141° |
| 2026-05-06 08:39 | 25.46794 | 107.94129 | 39854 ft | 520 kts | 153° |
| 2026-05-06 08:39 | 25.43576 | 107.95882 | 39840 ft | 513 kts | 164° |
| 2026-05-06 08:40 | 25.36698 | 107.97436 | 39860 ft | 502 kts | 179° |
| 2026-05-06 08:40 | 25.29730 | 107.98243 | 39863 ft | 504 kts | 179° |
| 2026-05-06 08:41 | 25.22752 | 107.99126 | 39852 ft | 504 kts | 179° |
| 2026-05-06 08:41 | 25.15779 | 107.99957 | 39852 ft | 504 kts | 179° |
| 2026-05-06 08:42 | 25.08814 | 108.00817 | 39830 ft | 503 kts | 179° |
| 2026-05-06 08:42 | 25.01961 | 108.02171 | 39828 ft | 511 kts | 165° |
| 2026-05-06 08:42 | 24.98700 | 108.03788 | 39818 ft | 518 kts | 154° |
| 2026-05-06 08:43 | 24.95719 | 108.06047 | 39811 ft | 524 kts | 143° |
| 2026-05-06 08:43 | 24.90668 | 108.11883 | 39830 ft | 527 kts | 134° |
| 2026-05-06 08:44 | 24.85786 | 108.17909 | 39824 ft | 527 kts | 134° |
| 2026-05-06 08:44 | 24.80872 | 108.23914 | 39823 ft | 527 kts | 134° |
| 2026-05-06 08:45 | 24.75979 | 108.29921 | 39809 ft | 526 kts | 134° |
| 2026-05-06 08:45 | 24.71090 | 108.35893 | 39802 ft | 525 kts | 134° |
| 2026-05-06 08:46 | 24.66236 | 108.41827 | 39800 ft | 525 kts | 134° |
| 2026-05-06 08:46 | 24.61344 | 108.47793 | 39807 ft | 525 kts | 134° |
| 2026-05-06 08:47 | 24.56449 | 108.53759 | 39810 ft | 525 kts | 134° |
| 2026-05-06 08:47 | 24.51554 | 108.59717 | 39830 ft | 526 kts | 134° |
| 2026-05-06 08:48 | 24.46649 | 108.65678 | 39829 ft | 527 kts | 134° |
| 2026-05-06 08:48 | 24.41730 | 108.71650 | 39825 ft | 527 kts | 134° |
| 2026-05-06 08:49 | 24.36825 | 108.77598 | 39821 ft | 525 kts | 134° |
| 2026-05-06 08:49 | 24.31930 | 108.83525 | 39826 ft | 523 kts | 135° |
| 2026-05-06 08:50 | 24.27042 | 108.89436 | 39832 ft | 524 kts | 135° |
| 2026-05-06 08:50 | 24.22141 | 108.95357 | 39833 ft | 525 kts | 135° |
| 2026-05-06 08:51 | 24.17254 | 109.01253 | 39841 ft | 526 kts | 135° |
| 2026-05-06 08:51 | 24.12333 | 109.07183 | 39843 ft | 526 kts | 135° |
| 2026-05-06 08:52 | 24.07412 | 109.13105 | 39840 ft | 526 kts | 135° |
| 2026-05-06 08:52 | 24.02492 | 109.19019 | 39840 ft | 524 kts | 135° |
| 2026-05-06 08:53 | 23.97589 | 109.24905 | 39836 ft | 522 kts | 135° |
| 2026-05-06 08:53 | 23.92687 | 109.30782 | 39830 ft | 523 kts | 135° |
| 2026-05-06 08:54 | 23.87781 | 109.36659 | 39831 ft | 524 kts | 135° |
| 2026-05-06 08:54 | 23.82863 | 109.42541 | 39833 ft | 524 kts | 135° |
| 2026-05-06 08:55 | 23.77938 | 109.48425 | 39833 ft | 524 kts | 135° |
| 2026-05-06 08:55 | 23.73026 | 109.54287 | 39830 ft | 522 kts | 135° |
| 2026-05-06 08:56 | 23.68318 | 109.60297 | 39829 ft | 523 kts | 124° |
| 2026-05-06 08:56 | 23.66601 | 109.63799 | 39830 ft | 526 kts | 113° |
| 2026-05-06 08:56 | 23.65497 | 109.67541 | 39839 ft | 526 kts | 103° |
| 2026-05-06 08:57 | 23.64071 | 109.75378 | 39848 ft | 527 kts | 101° |
| 2026-05-06 08:57 | 23.62373 | 109.83152 | 39860 ft | 527 kts | 104° |
| 2026-05-06 08:58 | 23.60792 | 109.90948 | 39858 ft | 527 kts | 102° |
| 2026-05-06 08:58 | 23.59168 | 109.98732 | 39863 ft | 526 kts | 103° |
| 2026-05-06 08:59 | 23.57539 | 110.06509 | 39862 ft | 526 kts | 102° |
| 2026-05-06 08:59 | 23.55926 | 110.14288 | 39864 ft | 526 kts | 103° |
| 2026-05-06 09:00 | 23.54287 | 110.22051 | 39856 ft | 525 kts | 103° |
| 2026-05-06 09:00 | 23.52679 | 110.29751 | 39853 ft | 523 kts | 103° |
| 2026-05-06 09:01 | 23.51043 | 110.37483 | 39852 ft | 525 kts | 103° |
| 2026-05-06 09:01 | 23.49482 | 110.45260 | 39851 ft | 526 kts | 102° |
| 2026-05-06 09:02 | 23.47894 | 110.53039 | 39854 ft | 526 kts | 103° |
| 2026-05-06 09:02 | 23.46308 | 110.60805 | 39856 ft | 524 kts | 102° |
| 2026-05-06 09:03 | 23.44727 | 110.68551 | 39850 ft | 523 kts | 103° |
| 2026-05-06 09:03 | 23.43125 | 110.76292 | 39851 ft | 523 kts | 103° |
| 2026-05-06 09:04 | 23.41488 | 110.83984 | 39856 ft | 525 kts | 103° |
| 2026-05-06 09:04 | 23.39859 | 110.91738 | 39864 ft | 525 kts | 103° |
| 2026-05-06 09:05 | 23.38215 | 110.99478 | 39861 ft | 524 kts | 103° |
| 2026-05-06 09:05 | 23.36574 | 111.07210 | 39864 ft | 524 kts | 103° |
| 2026-05-06 09:06 | 23.34930 | 111.14930 | 39869 ft | 524 kts | 103° |
| 2026-05-06 09:06 | 23.33358 | 111.22610 | 39868 ft | 523 kts | 102° |
| 2026-05-06 09:07 | 23.31791 | 111.30327 | 39874 ft | 522 kts | 103° |
| 2026-05-06 09:07 | 23.30198 | 111.38027 | 39873 ft | 522 kts | 102° |
| 2026-05-06 09:08 | 23.28624 | 111.45732 | 39875 ft | 522 kts | 102° |
| 2026-05-06 09:08 | 23.27025 | 111.53449 | 39878 ft | 523 kts | 102° |
| 2026-05-06 09:09 | 23.25397 | 111.61171 | 39886 ft | 524 kts | 103° |
| 2026-05-06 09:09 | 23.23757 | 111.68894 | 39889 ft | 524 kts | 103° |
| 2026-05-06 09:10 | 23.22133 | 111.76571 | 39890 ft | 523 kts | 103° |
| 2026-05-06 09:10 | 23.20487 | 111.84285 | 39896 ft | 523 kts | 103° |
| 2026-05-06 09:11 | 23.18902 | 111.91991 | 39893 ft | 522 kts | 102° |
| 2026-05-06 09:11 | 23.17294 | 111.99689 | 39896 ft | 522 kts | 103° |
| 2026-05-06 09:12 | 23.15683 | 112.07409 | 39899 ft | 524 kts | 102° |
| 2026-05-06 09:12 | 23.14066 | 112.15140 | 39903 ft | 525 kts | 102° |
| 2026-05-06 09:13 | 23.12454 | 112.22813 | 39900 ft | 523 kts | 102° |
| 2026-05-06 09:13 | 23.10838 | 112.30504 | 39898 ft | 522 kts | 102° |
| 2026-05-06 09:14 | 23.09215 | 112.38193 | 39901 ft | 523 kts | 102° |
| 2026-05-06 09:14 | 23.07588 | 112.45894 | 39908 ft | 523 kts | 102° |
| 2026-05-06 09:15 | 23.06617 | 112.53696 | 39911 ft | 521 kts | 92° |
| 2026-05-06 09:15 | 23.06170 | 112.61573 | 39912 ft | 523 kts | 93° |
| 2026-05-06 09:16 | 23.05588 | 112.69394 | 39917 ft | 522 kts | 93° |
| 2026-05-06 09:16 | 23.05084 | 112.77271 | 39919 ft | 522 kts | 93° |
| 2026-05-06 09:17 | 23.04528 | 112.85126 | 39915 ft | 522 kts | 93° |
| 2026-05-06 09:17 | 23.03994 | 112.92980 | 39916 ft | 522 kts | 93° |
| 2026-05-06 09:18 | 23.03448 | 113.00800 | 39917 ft | 522 kts | 93° |
| 2026-05-06 09:18 | 23.02628 | 113.08630 | 39903 ft | 523 kts | 104° |
| 2026-05-06 09:18 | 23.01440 | 113.12355 | 39914 ft | 523 kts | 115° |
| 2026-05-06 09:19 | 22.99644 | 113.15781 | 39913 ft | 522 kts | 126° |
| 2026-05-06 09:19 | 22.97312 | 113.18778 | 39909 ft | 519 kts | 137° |
| 2026-05-06 09:19 | 22.94525 | 113.21246 | 39907 ft | 516 kts | 149° |
| 2026-05-06 09:19 | 22.91390 | 113.23098 | 39904 ft | 512 kts | 160° |
| 2026-05-06 09:20 | 22.88042 | 113.24337 | 39920 ft | 507 kts | 167° |
| 2026-05-06 09:20 | 22.81227 | 113.26201 | 39362 ft | 503 kts | 169° |
| 2026-05-06 09:20 | 22.77858 | 113.27291 | 38704 ft | 506 kts | 164° |
| 2026-05-06 09:21 | 22.74541 | 113.28580 | 37986 ft | 507 kts | 162° |
| 2026-05-06 09:21 | 22.71261 | 113.29819 | 37287 ft | 505 kts | 165° |
| 2026-05-06 09:21 | 22.67905 | 113.30918 | 36605 ft | 503 kts | 167° |
| 2026-05-06 09:21 | 22.64545 | 113.31999 | 35927 ft | 503 kts | 165° |
| 2026-05-06 09:22 | 22.61211 | 113.33173 | 35220 ft | 504 kts | 164° |
| 2026-05-06 09:22 | 22.57878 | 113.34380 | 34494 ft | 506 kts | 164° |
| 2026-05-06 09:22 | 22.54516 | 113.35544 | 33704 ft | 508 kts | 165° |
| 2026-05-06 09:22 | 22.51134 | 113.36677 | 32851 ft | 510 kts | 165° |
| 2026-05-06 09:23 | 22.47749 | 113.37836 | 31989 ft | 510 kts | 165° |
| 2026-05-06 09:23 | 22.44370 | 113.39022 | 31118 ft | 511 kts | 165° |
| 2026-05-06 09:23 | 22.40982 | 113.40202 | 30220 ft | 512 kts | 165° |
| 2026-05-06 09:23 | 22.37583 | 113.41363 | 29186 ft | 512 kts | 165° |
| 2026-05-06 09:24 | 22.34195 | 113.42520 | 28231 ft | 509 kts | 165° |
| 2026-05-06 09:24 | 22.30838 | 113.43681 | 27321 ft | 505 kts | 165° |
| 2026-05-06 09:24 | 22.27493 | 113.44839 | 26441 ft | 501 kts | 165° |
| 2026-05-06 09:24 | 22.24234 | 113.45958 | 25589 ft | 497 kts | 165° |
| 2026-05-06 09:25 | 22.20954 | 113.47117 | 24730 ft | 494 kts | 163° |
| 2026-05-06 09:25 | 22.17723 | 113.48333 | 23874 ft | 490 kts | 164° |
| 2026-05-06 09:25 | 22.14486 | 113.49487 | 22938 ft | 487 kts | 165° |
| 2026-05-06 09:25 | 22.11285 | 113.50635 | 22022 ft | 482 kts | 164° |
| 2026-05-06 09:26 | 22.08133 | 113.51804 | 21329 ft | 473 kts | 163° |
| 2026-05-06 09:26 | 22.05079 | 113.52940 | 21015 ft | 455 kts | 164° |
| 2026-05-06 09:26 | 22.02147 | 113.54009 | 20882 ft | 434 kts | 164° |
| 2026-05-06 09:26 | 21.99343 | 113.55027 | 20721 ft | 416 kts | 164° |
| 2026-05-06 09:27 | 21.96677 | 113.56173 | 20163 ft | 410 kts | 159° |
| 2026-05-06 09:27 | 21.94093 | 113.57380 | 19631 ft | 399 kts | 159° |
| 2026-05-06 09:27 | 21.91568 | 113.58530 | 19124 ft | 388 kts | 160° |
| 2026-05-06 09:27 | 21.89114 | 113.59649 | 18629 ft | 378 kts | 160° |
| 2026-05-06 09:28 | 21.86717 | 113.60756 | 18162 ft | 371 kts | 159° |
| 2026-05-06 09:28 | 21.85148 | 113.61482 | 17819 ft | 371 kts | 159° |
| 2026-05-06 09:28 | 21.81979 | 113.62937 | 17198 ft | 374 kts | 159° |
| 2026-05-06 09:28 | 21.79613 | 113.64023 | 16749 ft | 367 kts | 159° |
| 2026-05-06 09:29 | 21.77268 | 113.65100 | 16303 ft | 366 kts | 159° |
| 2026-05-06 09:29 | 21.74947 | 113.66234 | 15855 ft | 369 kts | 153° |
| 2026-05-06 09:29 | 21.73546 | 113.67351 | 15510 ft | 374 kts | 138° |
| 2026-05-06 09:29 | 21.72013 | 113.69598 | 15168 ft | 373 kts | 117° |
| 2026-05-06 09:30 | 21.71278 | 113.72199 | 14683 ft | 369 kts | 97° |
| 2026-05-06 09:30 | 21.71413 | 113.74932 | 14255 ft | 367 kts | 76° |
| 2026-05-06 09:30 | 21.72367 | 113.77456 | 13833 ft | 364 kts | 57° |
| 2026-05-06 09:30 | 21.74001 | 113.79494 | 13384 ft | 358 kts | 40° |
| 2026-05-06 09:31 | 21.75856 | 113.81268 | 12965 ft | 356 kts | 39° |
| 2026-05-06 09:31 | 21.77714 | 113.83023 | 12543 ft | 355 kts | 39° |
| 2026-05-06 09:31 | 21.79541 | 113.84812 | 12115 ft | 354 kts | 40° |
| 2026-05-06 09:31 | 21.81344 | 113.86604 | 11685 ft | 352 kts | 41° |
| 2026-05-06 09:32 | 21.83231 | 113.88184 | 11186 ft | 336 kts | 25° |
| 2026-05-06 09:32 | 21.85372 | 113.88936 | 10748 ft | 313 kts | 6° |
| 2026-05-06 09:32 | 21.87467 | 113.88905 | 10340 ft | 291 kts | 347° |
| 2026-05-06 09:32 | 21.89335 | 113.88237 | 9980 ft | 280 kts | 332° |
| 2026-05-06 09:33 | 21.91083 | 113.87352 | 9677 ft | 282 kts | 332° |
| 2026-05-06 09:33 | 21.92874 | 113.86449 | 9338 ft | 284 kts | 332° |
| 2026-05-06 09:33 | 21.94659 | 113.85562 | 8995 ft | 282 kts | 332° |
| 2026-05-06 09:33 | 21.96435 | 113.84684 | 8654 ft | 279 kts | 332° |
| 2026-05-06 09:34 | 21.98190 | 113.83810 | 8320 ft | 277 kts | 332° |
| 2026-05-06 09:34 | 21.99937 | 113.82939 | 7985 ft | 276 kts | 332° |
| 2026-05-06 09:34 | 22.01674 | 113.82075 | 7659 ft | 274 kts | 332° |
| 2026-05-06 09:34 | 22.03401 | 113.81214 | 7333 ft | 273 kts | 332° |
| 2026-05-06 09:35 | 22.05122 | 113.80357 | 7015 ft | 271 kts | 333° |
| 2026-05-06 09:35 | 22.06804 | 113.79522 | 6677 ft | 259 kts | 332° |
| 2026-05-06 09:35 | 22.08401 | 113.78728 | 6346 ft | 248 kts | 332° |
| 2026-05-06 09:35 | 22.09950 | 113.77955 | 6017 ft | 240 kts | 332° |
| 2026-05-06 09:36 | 22.11443 | 113.77210 | 5717 ft | 232 kts | 333° |
| 2026-05-06 09:36 | 22.12898 | 113.76484 | 5419 ft | 228 kts | 332° |
| 2026-05-06 09:36 | 22.14326 | 113.75772 | 5223 ft | 221 kts | 332° |
| 2026-05-06 09:36 | 22.15712 | 113.75078 | 4991 ft | 223 kts | 332° |
| 2026-05-06 09:37 | 22.17124 | 113.74371 | 4747 ft | 224 kts | 332° |
| 2026-05-06 09:37 | 22.18531 | 113.73667 | 4473 ft | 220 kts | 333° |
| 2026-05-06 09:37 | 22.19933 | 113.72969 | 4176 ft | 223 kts | 333° |
| 2026-05-06 09:37 | 22.21345 | 113.72266 | 3904 ft | 223 kts | 333° |
| 2026-05-06 09:38 | 22.22739 | 113.71720 | 3562 ft | 211 kts | 349° |
| 2026-05-06 09:38 | 22.24176 | 113.72031 | 3130 ft | 213 kts | 27° |
| 2026-05-06 09:38 | 22.25322 | 113.72995 | 2973 ft | 200 kts | 43° |
| 2026-05-06 09:38 | 22.26352 | 113.73988 | 3004 ft | 202 kts | 44° |
| 2026-05-06 09:39 | 22.27396 | 113.75014 | 2795 ft | 201 kts | 49° |
| 2026-05-06 09:39 | 22.28241 | 113.76121 | 2504 ft | 181 kts | 58° |
| 2026-05-06 09:39 | 22.28769 | 113.77249 | 2137 ft | 157 kts | 75° |
| 2026-05-06 09:39 | 22.29098 | 113.78384 | 1929 ft | 163 kts | 77° |
| 2026-05-06 09:40 | 22.29384 | 113.79495 | 1693 ft | 146 kts | 76° |
| 2026-05-06 09:40 | 22.29693 | 113.80510 | 1496 ft | 142 kts | 75° |
| 2026-05-06 09:40 | 22.30337 | 113.82557 | 1129 ft | 145 kts | 75° |
| 2026-05-06 09:41 | 22.30660 | 113.83594 | 943 ft | 147 kts | 73° |
| 2026-05-06 09:41 | 22.30993 | 113.84628 | 780 ft | 142 kts | 71° |
| 2026-05-06 09:41 | 22.31330 | 113.85626 | 572 ft | 140 kts | 71° |
| 2026-05-06 09:41 | 22.31632 | 113.86583 | 369 ft | 135 kts | 73° |
| 2026-05-06 09:42 | 22.31941 | 113.87565 | 218 ft | 139 kts | 72° |
| 2026-05-06 09:42 | 22.32256 | 113.88533 | 41 ft | 130 kts | 72° |
| 2026-05-06 09:42 | 22.32485 | 113.89247 | 36 ft | 71 kts | 71° |
| 2026-05-06 09:42 | 22.32608 | 113.89623 | 37 ft | 41 kts | 70° |
| 2026-05-06 09:43 | 22.32696 | 113.89900 | 38 ft | 36 kts | 75° |
| 2026-05-06 09:43 | 22.32688 | 113.90140 | 38 ft | 29 kts | 102° |
| 2026-05-06 09:43 | 22.32633 | 113.90275 | 38 ft | 12 kts | 160° |
| 2026-05-06 09:43 | 22.32551 | 113.90303 | 38 ft | 13 kts | 163° |
| 2026-05-06 09:44 | 22.32464 | 113.90333 | 37 ft | 14 kts | 161° |
| 2026-05-06 09:44 | 22.32373 | 113.90369 | 37 ft | 14 kts | 159° |
| 2026-05-06 09:44 | 22.32275 | 113.90405 | 37 ft | 15 kts | 162° |
| 2026-05-06 09:44 | 22.32173 | 113.90442 | 37 ft | 16 kts | 161° |
| 2026-05-06 09:45 | 22.32066 | 113.90481 | 36 ft | 16 kts | 161° |
| 2026-05-06 09:45 | 22.31955 | 113.90522 | 37 ft | 17 kts | 161° |
| 2026-05-06 09:45 | 22.31842 | 113.90565 | 37 ft | 18 kts | 161° |
| 2026-05-06 09:45 | 22.31725 | 113.90609 | 37 ft | 18 kts | 161° |
| 2026-05-06 09:46 | 22.31607 | 113.90654 | 38 ft | 18 kts | 157° |
| 2026-05-06 09:46 | 22.31572 | 113.90731 | 38 ft | 7 kts | 70° |
| 2026-05-06 09:46 | 22.31592 | 113.90789 | 38 ft | 10 kts | 70° |
| 2026-05-06 09:46 | 22.31623 | 113.90884 | 38 ft | 19 kts | 70° |
| 2026-05-06 09:47 | 22.31670 | 113.91031 | 38 ft | 22 kts | 71° |
| 2026-05-06 09:47 | 22.31724 | 113.91200 | 38 ft | 25 kts | 71° |
| 2026-05-06 09:47 | 22.31784 | 113.91388 | 38 ft | 28 kts | 71° |
| 2026-05-06 09:47 | 22.31848 | 113.91595 | 36 ft | 30 kts | 72° |
| 2026-05-06 09:48 | 22.31920 | 113.91816 | 38 ft | 32 kts | 69° |
| 2026-05-06 09:48 | 22.31997 | 113.92047 | 38 ft | 32 kts | 71° |
| 2026-05-06 09:48 | 22.32065 | 113.92260 | 38 ft | 29 kts | 71° |
| 2026-05-06 09:48 | 22.32128 | 113.92459 | 38 ft | 27 kts | 71° |
| 2026-05-06 09:49 | 22.32184 | 113.92637 | 38 ft | 17 kts | 79° |
| 2026-05-06 09:49 | 22.32138 | 113.92704 | 38 ft | 12 kts | 154° |
| 2026-05-06 09:49 | 22.32062 | 113.92735 | 40 ft | 13 kts | 160° |
| 2026-05-06 09:49 | 22.31967 | 113.92770 | 40 ft | 16 kts | 162° |
| 2026-05-06 09:50 | 22.31847 | 113.92820 | 37 ft | 20 kts | 157° |
| 2026-05-06 09:50 | 22.31711 | 113.92881 | 38 ft | 22 kts | 157° |
| 2026-05-06 09:50 | 22.31588 | 113.92925 | 38 ft | 14 kts | 166° |
| 2026-05-06 09:50 | 22.31538 | 113.92911 | 38 ft | 5 kts | 219° |
| 2026-05-06 09:51 | 22.31505 | 113.92855 | 38 ft | 12 kts | 245° |
| 2026-05-06 09:51 | 22.31487 | 113.92767 | 38 ft | 11 kts | 282° |
| 2026-05-06 09:51 | 22.31521 | 113.92693 | 38 ft | 12 kts | 297° |
| 2026-05-06 09:51 | 22.31538 | 113.92655 | 38 ft | 3 kts | 296° |
| 2026-05-06 09:52 | 22.31543 | 113.92609 | 38 ft | 2 kts | 245° |
| 2026-05-06 09:52 | 22.31524 | 113.92596 | 38 ft | 8 kts | 207° |
| 2026-05-06 09:52 | 22.31473 | 113.92570 | 38 ft | 2 kts | 206° |
| 2026-05-06 09:52 | 22.31473 | 113.92569 | 38 ft | 0 kts | 206° |